createdAt,value
2017-10-14T00:00:51.455Z,968.33
2017-10-14T00:01:51.480Z,968.34
2017-10-14T00:02:51.498Z,968.33
2017-10-14T00:03:51.521Z,968.35
2017-10-14T00:04:51.541Z,968.28
2017-10-14T00:05:51.559Z,968.3
2017-10-14T00:06:51.582Z,968.33
2017-10-14T00:07:51.605Z,968.28
2017-10-14T00:08:51.629Z,968.3
2017-10-14T00:09:51.649Z,968.29
2017-10-14T00:10:51.669Z,968.33
2017-10-14T00:11:51.688Z,968.3
2017-10-14T00:12:51.733Z,968.28
2017-10-14T00:13:51.729Z,968.3
2017-10-14T00:14:51.749Z,968.29
2017-10-14T00:15:51.775Z,968.31
2017-10-14T00:16:51.791Z,968.32
2017-10-14T00:17:51.862Z,968.31
2017-10-14T00:18:51.833Z,968.29
2017-10-14T00:19:51.857Z,968.28
2017-10-14T00:20:51.876Z,968.29
2017-10-14T00:21:51.896Z,968.29
2017-10-14T00:22:51.919Z,968.3
2017-10-14T00:23:51.937Z,968.3
2017-10-14T00:24:51.959Z,968.3
2017-10-14T00:25:51.979Z,968.3
2017-10-14T00:26:52.005Z,968.32
2017-10-14T00:27:52.029Z,968.31
2017-10-14T00:28:52.043Z,968.3
2017-10-14T00:29:52.063Z,968.27
2017-10-14T00:30:52.089Z,968.31
2017-10-14T00:31:52.105Z,968.3
2017-10-14T00:32:52.124Z,968.28
2017-10-14T00:33:52.196Z,968.29
2017-10-14T00:34:52.167Z,968.25
2017-10-14T00:35:52.187Z,968.27
2017-10-14T00:36:52.208Z,968.26
2017-10-14T00:37:52.228Z,968.22
2017-10-14T00:38:52.250Z,968.26
2017-10-14T00:39:52.270Z,968.26
2017-10-14T00:40:52.295Z,968.25
2017-10-14T00:41:52.311Z,968.24
2017-10-14T00:42:52.334Z,968.22
2017-10-14T00:43:52.354Z,968.21
2017-10-14T00:44:52.375Z,968.21
2017-10-14T00:45:52.394Z,968.22
2017-10-14T00:46:52.418Z,968.22
2017-10-14T00:47:52.436Z,968.2
2017-10-14T00:48:52.457Z,968.18
2017-10-14T00:49:52.479Z,968.19
2017-10-14T00:50:52.518Z,968.17
2017-10-14T00:51:52.521Z,968.17
2017-10-14T00:52:52.541Z,968.11
2017-10-14T00:53:52.560Z,968.13
2017-10-14T00:54:52.581Z,968.1
2017-10-14T00:55:52.604Z,968.11
2017-10-14T00:56:52.622Z,968.09
2017-10-14T00:57:52.641Z,968.06
2017-10-14T00:58:52.662Z,968.06
2017-10-14T00:59:52.685Z,968
2017-10-14T01:00:52.705Z,968.04
2017-10-14T01:01:52.724Z,968.01
2017-10-14T01:02:52.747Z,968.01
2017-10-14T01:03:52.768Z,968
2017-10-14T01:04:52.788Z,967.99
2017-10-14T01:05:52.810Z,967.99
2017-10-14T01:06:52.829Z,967.98
2017-10-14T01:07:52.849Z,968.02
2017-10-14T01:08:52.870Z,967.99
2017-10-14T01:09:52.947Z,968
2017-10-14T01:10:52.914Z,968
2017-10-14T01:11:52.940Z,967.98
2017-10-14T01:12:52.955Z,967.95
2017-10-14T01:13:52.973Z,967.98
2017-10-14T01:14:52.994Z,967.97
2017-10-14T01:15:53.015Z,967.98
2017-10-14T01:16:53.035Z,967.97
2017-10-14T01:17:53.062Z,967.95
2017-10-14T01:18:53.086Z,967.95
2017-10-14T01:19:53.098Z,967.93
2017-10-14T01:20:53.120Z,967.94
2017-10-14T01:21:53.140Z,967.91
2017-10-14T01:22:53.160Z,967.9
2017-10-14T01:23:53.179Z,967.89
2017-10-14T01:24:53.204Z,967.9
2017-10-14T01:25:53.221Z,967.83
2017-10-14T01:26:53.241Z,967.81
2017-10-14T01:27:53.266Z,967.82
2017-10-14T01:28:53.333Z,967.81
2017-10-14T01:29:53.310Z,967.82
2017-10-14T01:30:53.326Z,967.79
2017-10-14T01:31:53.418Z,967.79
2017-10-14T01:32:53.632Z,967.83
2017-10-14T01:33:53.384Z,967.81
2017-10-14T01:34:53.405Z,967.82
2017-10-14T01:35:53.440Z,967.77
2017-10-14T01:36:53.445Z,967.78
2017-10-14T01:37:53.467Z,967.76
2017-10-14T01:38:53.486Z,967.79
2017-10-14T01:39:53.509Z,967.75
2017-10-14T01:40:53.529Z,967.74
2017-10-14T01:41:53.550Z,967.75
2017-10-14T01:42:53.569Z,967.73
2017-10-14T01:43:53.640Z,967.75
2017-10-14T01:44:53.611Z,967.77
2017-10-14T01:45:53.630Z,967.77
2017-10-14T01:46:53.653Z,967.74
2017-10-14T01:47:53.672Z,967.77
2017-10-14T01:48:53.693Z,967.77
2017-10-14T01:49:53.714Z,967.74
2017-10-14T01:50:53.736Z,967.78
2017-10-14T01:51:53.754Z,967.75
2017-10-14T01:52:53.775Z,967.78
2017-10-14T01:53:53.794Z,967.79
2017-10-14T01:54:53.814Z,967.77
2017-10-14T01:55:53.837Z,967.81
2017-10-14T01:56:53.858Z,967.81
2017-10-14T01:57:53.878Z,967.81
2017-10-14T01:58:53.898Z,967.86
2017-10-14T01:59:53.968Z,967.85
2017-10-14T02:00:53.939Z,967.88
2017-10-14T02:01:53.959Z,967.84
2017-10-14T02:02:53.980Z,967.91
2017-10-14T02:03:54.005Z,967.9
2017-10-14T02:04:54.020Z,967.92
2017-10-14T02:05:54.044Z,967.94
2017-10-14T02:06:54.060Z,967.93
2017-10-14T02:07:54.083Z,967.92
2017-10-14T02:08:54.109Z,967.93
2017-10-14T02:09:54.127Z,967.92
2017-10-14T02:10:54.145Z,967.95
2017-10-14T02:11:54.163Z,967.98
2017-10-14T02:12:54.184Z,967.97
2017-10-14T02:13:54.204Z,967.96
2017-10-14T02:14:54.228Z,967.9
2017-10-14T02:15:54.245Z,967.94
2017-10-14T02:16:54.264Z,967.9
2017-10-14T02:17:54.335Z,967.91
2017-10-14T02:18:54.305Z,967.93
2017-10-14T02:19:54.327Z,967.93
2017-10-14T02:20:54.349Z,967.92
2017-10-14T02:21:54.382Z,967.92
2017-10-14T02:22:54.388Z,967.92
2017-10-14T02:23:54.410Z,967.92
2017-10-14T02:24:54.432Z,967.89
2017-10-14T02:25:54.452Z,967.93
2017-10-14T02:26:54.470Z,967.93
2017-10-14T02:27:54.490Z,967.95
2017-10-14T02:28:54.515Z,968.02
2017-10-14T02:29:54.534Z,967.99
2017-10-14T02:30:54.551Z,968.01
2017-10-14T02:31:54.577Z,968
2017-10-14T02:32:54.643Z,968.01
2017-10-14T02:33:54.620Z,967.98
2017-10-14T02:34:54.645Z,967.98
2017-10-14T02:35:54.653Z,967.95
2017-10-14T02:36:54.693Z,967.98
2017-10-14T02:37:54.694Z,967.96
2017-10-14T02:38:54.712Z,967.97
2017-10-14T02:39:54.734Z,967.96
2017-10-14T02:40:54.803Z,967.98
2017-10-14T02:41:54.774Z,967.97
2017-10-14T02:42:54.799Z,967.97
2017-10-14T02:43:54.817Z,967.99
2017-10-14T02:44:54.837Z,968.01
2017-10-14T02:45:54.856Z,968
2017-10-14T02:46:54.878Z,967.98
2017-10-14T02:47:54.897Z,967.99
2017-10-14T02:48:54.924Z,967.97
2017-10-14T02:49:54.936Z,968
2017-10-14T02:50:54.956Z,967.99
2017-10-14T02:51:54.979Z,967.97
2017-10-14T02:52:55.003Z,968
2017-10-14T02:53:55.019Z,968
2017-10-14T02:54:55.043Z,967.99
2017-10-14T02:55:55.109Z,968.04
2017-10-14T02:56:55.083Z,967.99
2017-10-14T02:57:55.100Z,968.02
2017-10-14T02:58:55.119Z,968.02
2017-10-14T02:59:55.145Z,968.01
2017-10-14T03:00:55.158Z,967.99
2017-10-14T03:01:55.180Z,968.01
2017-10-14T03:02:55.201Z,968.01
2017-10-14T03:03:55.220Z,967.99
2017-10-14T03:04:55.238Z,967.97
2017-10-14T03:05:55.264Z,968.01
2017-10-14T03:06:55.280Z,968.03
2017-10-14T03:07:55.299Z,967.99
2017-10-14T03:08:55.319Z,967.97
2017-10-14T03:09:55.386Z,967.97
2017-10-14T03:10:55.359Z,967.96
2017-10-14T03:11:55.378Z,967.91
2017-10-14T03:12:55.400Z,967.9
2017-10-14T03:13:55.421Z,967.91
2017-10-14T03:14:55.457Z,967.88
2017-10-14T03:15:55.467Z,967.88
2017-10-14T03:16:55.479Z,967.9
2017-10-14T03:17:55.502Z,967.93
2017-10-14T03:18:55.526Z,967.98
2017-10-14T03:19:55.541Z,967.99
2017-10-14T03:20:55.612Z,967.97
2017-10-14T03:21:55.585Z,968
2017-10-14T03:22:55.607Z,968.02
2017-10-14T03:23:55.626Z,968
2017-10-14T03:24:55.645Z,968.01
2017-10-14T03:25:55.667Z,968.04
2017-10-14T03:26:55.684Z,967.99
2017-10-14T03:27:55.702Z,968
2017-10-14T03:28:55.723Z,968.02
2017-10-14T03:29:55.759Z,967.97
2017-10-14T03:30:55.769Z,967.99
2017-10-14T03:31:55.796Z,968.02
2017-10-14T03:32:55.805Z,967.99
2017-10-14T03:33:55.828Z,968.02
2017-10-14T03:34:55.845Z,968.01
2017-10-14T03:35:55.865Z,968.01
2017-10-14T03:36:55.936Z,968
2017-10-14T03:37:55.904Z,967.99
2017-10-14T03:38:55.927Z,968.02
2017-10-14T03:39:55.948Z,968.02
2017-10-14T03:40:55.964Z,968.02
2017-10-14T03:41:55.985Z,968.01
2017-10-14T03:42:56.005Z,968.04
2017-10-14T03:43:56.026Z,968.05
2017-10-14T03:44:56.045Z,968.04
2017-10-14T03:45:56.065Z,968.05
2017-10-14T03:46:56.084Z,968.08
2017-10-14T03:47:56.106Z,968.01
2017-10-14T03:48:56.126Z,968.06
2017-10-14T03:49:56.148Z,968.03
2017-10-14T03:50:56.166Z,968.03
2017-10-14T03:51:56.186Z,968.08
2017-10-14T03:52:56.204Z,968.04
2017-10-14T03:53:56.228Z,968.05
2017-10-14T03:54:56.250Z,968.06
2017-10-14T03:55:56.263Z,968.09
2017-10-14T03:56:56.287Z,968.12
2017-10-14T03:57:56.307Z,968.1
2017-10-14T03:58:56.323Z,968.14
2017-10-14T03:59:56.341Z,968.15
2017-10-14T04:00:56.363Z,968.15
2017-10-14T04:01:56.383Z,968.11
2017-10-14T04:02:56.407Z,968.14
2017-10-14T04:03:56.444Z,968.12
2017-10-14T04:04:56.441Z,968.11
2017-10-14T04:05:56.462Z,968.12
2017-10-14T04:06:56.485Z,968.12
2017-10-14T04:07:56.524Z,968.12
2017-10-14T04:08:56.572Z,968.09
2017-10-14T04:09:56.546Z,968.12
2017-10-14T04:10:56.560Z,968.09
2017-10-14T04:11:56.580Z,968.09
2017-10-14T04:12:56.601Z,968.11
2017-10-14T04:13:56.620Z,968.11
2017-10-14T04:14:56.639Z,968.08
2017-10-14T04:15:56.662Z,968.07
2017-10-14T04:16:56.678Z,968.08
2017-10-14T04:17:56.698Z,968.1
2017-10-14T04:18:56.721Z,968.15
2017-10-14T04:19:56.747Z,968.14
2017-10-14T04:20:56.768Z,968.14
2017-10-14T04:21:56.781Z,968.17
2017-10-14T04:22:56.815Z,968.13
2017-10-14T04:23:56.838Z,968.18
2017-10-14T04:24:56.837Z,968.18
2017-10-14T04:25:56.856Z,968.15
2017-10-14T04:26:56.876Z,968.17
2017-10-14T04:27:56.946Z,968.19
2017-10-14T04:28:56.916Z,968.19
2017-10-14T04:29:56.936Z,968.15
2017-10-14T04:30:56.960Z,968.18
2017-10-14T04:31:56.976Z,968.2
2017-10-14T04:32:56.995Z,968.21
2017-10-14T04:33:57.018Z,968.21
2017-10-14T04:34:57.037Z,968.18
2017-10-14T04:35:57.054Z,968.22
2017-10-14T04:36:57.074Z,968.24
2017-10-14T04:37:57.093Z,968.21
2017-10-14T04:38:57.118Z,968.23
2017-10-14T04:39:57.132Z,968.23
2017-10-14T04:40:57.152Z,968.25
2017-10-14T04:41:57.172Z,968.22
2017-10-14T04:42:57.242Z,968.28
2017-10-14T04:43:57.213Z,968.29
2017-10-14T04:44:57.237Z,968.23
2017-10-14T04:45:57.254Z,968.24
2017-10-14T04:46:57.270Z,968.25
2017-10-14T04:47:57.292Z,968.24
2017-10-14T04:48:57.311Z,968.23
2017-10-14T04:49:57.331Z,968.24
2017-10-14T04:50:57.353Z,968.25
2017-10-14T04:51:57.368Z,968.26
2017-10-14T04:52:57.398Z,968.25
2017-10-14T04:53:57.412Z,968.26
2017-10-14T04:54:57.431Z,968.24
2017-10-14T04:55:57.453Z,968.29
2017-10-14T04:56:57.469Z,968.27
2017-10-14T04:57:57.541Z,968.28
2017-10-14T04:58:57.509Z,968.27
2017-10-14T04:59:57.527Z,968.31
2017-10-14T05:00:57.553Z,968.27
2017-10-14T05:01:57.572Z,968.29
2017-10-14T05:02:57.592Z,968.24
2017-10-14T05:03:57.608Z,968.23
2017-10-14T05:04:57.631Z,968.25
2017-10-14T05:05:57.647Z,968.21
2017-10-14T05:06:57.673Z,968.25
2017-10-14T05:07:57.893Z,968.24
2017-10-14T05:08:57.703Z,968.26
2017-10-14T05:09:57.722Z,968.26
2017-10-14T05:10:57.749Z,968.22
2017-10-14T05:11:57.784Z,968.22
2017-10-14T05:12:57.837Z,968.24
2017-10-14T05:13:57.802Z,968.22
2017-10-14T05:14:57.822Z,968.26
2017-10-14T05:15:57.842Z,968.21
2017-10-14T05:16:57.863Z,968.23
2017-10-14T05:17:57.885Z,968.26
2017-10-14T05:18:57.904Z,968.23
2017-10-14T05:19:57.918Z,968.27
2017-10-14T05:20:57.940Z,968.25
2017-10-14T05:21:57.961Z,968.3
2017-10-14T05:22:57.985Z,968.28
2017-10-14T05:23:57.999Z,968.28
2017-10-14T05:24:58.017Z,968.27
2017-10-14T05:25:58.038Z,968.26
2017-10-14T05:26:58.056Z,968.29
2017-10-14T05:27:58.078Z,968.29
2017-10-14T05:28:58.095Z,968.29
2017-10-14T05:29:58.117Z,968.31
2017-10-14T05:30:58.140Z,968.34
2017-10-14T05:31:58.203Z,968.33
2017-10-14T05:32:58.174Z,968.37
2017-10-14T05:33:58.193Z,968.34
2017-10-14T05:34:58.212Z,968.3
2017-10-14T05:35:58.231Z,968.35
2017-10-14T05:36:58.254Z,968.32
2017-10-14T05:37:58.279Z,968.33
2017-10-14T05:38:58.293Z,968.36
2017-10-14T05:39:58.313Z,968.37
2017-10-14T05:40:58.334Z,968.38
2017-10-14T05:41:58.349Z,968.36
2017-10-14T05:42:58.371Z,968.4
2017-10-14T05:43:58.390Z,968.39
2017-10-14T05:44:58.408Z,968.39
2017-10-14T05:45:58.426Z,968.4
2017-10-14T05:46:58.496Z,968.42
2017-10-14T05:47:58.465Z,968.42
2017-10-14T05:48:58.485Z,968.43
2017-10-14T05:49:58.509Z,968.43
2017-10-14T05:50:58.524Z,968.42
2017-10-14T05:51:58.544Z,968.48
2017-10-14T05:52:58.564Z,968.49
2017-10-14T05:53:58.582Z,968.48
2017-10-14T05:54:58.605Z,968.5
2017-10-14T05:55:58.625Z,968.49
2017-10-14T05:56:58.643Z,968.46
2017-10-14T05:57:58.662Z,968.48
2017-10-14T05:58:58.681Z,968.45
2017-10-14T05:59:58.704Z,968.51
2017-10-14T06:00:58.739Z,968.54
2017-10-14T06:01:58.739Z,968.48
2017-10-14T06:02:58.762Z,968.5
2017-10-14T06:03:58.785Z,968.54
2017-10-14T06:04:58.805Z,968.57
2017-10-14T06:05:58.830Z,968.57
2017-10-14T06:06:58.841Z,968.57
2017-10-14T06:07:58.856Z,968.6
2017-10-14T06:08:58.876Z,968.6
2017-10-14T06:09:58.896Z,968.6
2017-10-14T06:10:58.913Z,968.63
2017-10-14T06:11:58.934Z,968.65
2017-10-14T06:12:58.954Z,968.64
2017-10-14T06:13:58.984Z,968.65
2017-10-14T06:14:58.992Z,968.64
2017-10-14T06:15:59.021Z,968.65
2017-10-14T06:16:59.033Z,968.66
2017-10-14T06:17:59.107Z,968.62
2017-10-14T06:18:59.071Z,968.65
2017-10-14T06:19:59.093Z,968.64
2017-10-14T06:20:59.113Z,968.64
2017-10-14T06:21:59.133Z,968.65
2017-10-14T06:22:59.152Z,968.63
2017-10-14T06:23:59.171Z,968.68
2017-10-14T06:24:59.192Z,968.67
2017-10-14T06:25:59.212Z,968.65
2017-10-14T06:26:59.231Z,968.66
2017-10-14T06:27:59.251Z,968.62
2017-10-14T06:28:59.273Z,968.65
2017-10-14T06:29:59.294Z,968.67
2017-10-14T06:30:59.319Z,968.68
2017-10-14T06:31:59.342Z,968.72
2017-10-14T06:32:59.411Z,968.71
2017-10-14T06:33:59.372Z,968.68
2017-10-14T06:34:59.397Z,968.67
2017-10-14T06:35:59.416Z,968.72
2017-10-14T06:36:59.434Z,968.68
2017-10-14T06:37:59.456Z,968.72
2017-10-14T06:38:59.475Z,968.7
2017-10-14T06:39:59.494Z,968.75
2017-10-14T06:40:59.516Z,968.75
2017-10-14T06:41:59.548Z,968.77
2017-10-14T06:42:59.555Z,968.72
2017-10-14T06:43:59.581Z,968.81
2017-10-14T06:44:59.602Z,968.77
2017-10-14T06:45:59.621Z,968.82
2017-10-14T06:46:59.637Z,968.8
2017-10-14T06:47:59.658Z,968.79
2017-10-14T06:48:59.684Z,968.77
2017-10-14T06:49:59.700Z,968.78
2017-10-14T06:50:59.769Z,968.82
2017-10-14T06:51:59.740Z,968.82
2017-10-14T06:52:59.761Z,968.76
2017-10-14T06:53:59.783Z,968.79
2017-10-14T06:54:59.801Z,968.81
2017-10-14T06:55:59.823Z,968.81
2017-10-14T06:56:59.844Z,968.82
2017-10-14T06:57:59.865Z,968.81
2017-10-14T06:58:59.884Z,968.79
2017-10-14T06:59:59.911Z,968.8
2017-10-14T07:00:59.924Z,968.82
2017-10-14T07:01:59.945Z,968.83
2017-10-14T07:02:59.970Z,968.84
2017-10-14T07:03:59.991Z,968.83
2017-10-14T07:05:00.008Z,968.84
2017-10-14T07:06:00.079Z,968.82
2017-10-14T07:07:00.051Z,968.83
2017-10-14T07:08:00.069Z,968.83
2017-10-14T07:09:00.095Z,968.89
2017-10-14T07:10:00.110Z,968.86
2017-10-14T07:11:00.131Z,968.9
2017-10-14T07:12:00.154Z,968.87
2017-10-14T07:13:00.173Z,968.91
2017-10-14T07:14:00.192Z,968.92
2017-10-14T07:15:00.215Z,968.91
2017-10-14T07:16:00.239Z,968.93
2017-10-14T07:17:00.260Z,968.95
2017-10-14T07:18:00.279Z,968.96
2017-10-14T07:19:00.300Z,968.98
2017-10-14T07:20:00.320Z,968.99
2017-10-14T07:21:00.391Z,968.97
2017-10-14T07:22:00.361Z,969.01
2017-10-14T07:23:00.382Z,969.01
2017-10-14T07:24:00.406Z,969.01
2017-10-14T07:25:00.429Z,969.04
2017-10-14T07:26:00.445Z,969.04
2017-10-14T07:27:00.467Z,969.04
2017-10-14T07:28:00.490Z,969.04
2017-10-14T07:29:00.512Z,969.04
2017-10-14T07:30:00.534Z,969.07
2017-10-14T07:31:00.556Z,969.06
2017-10-14T07:32:00.603Z,969.1
2017-10-14T07:33:00.595Z,969.05
2017-10-14T07:34:00.625Z,969.03
2017-10-14T07:35:00.638Z,969.07
2017-10-14T07:36:00.658Z,969.08
2017-10-14T07:37:00.681Z,969.07
2017-10-14T07:38:00.756Z,969.06
2017-10-14T07:39:00.725Z,969.09
2017-10-14T07:40:00.749Z,969.09
2017-10-14T07:41:00.770Z,969.06
2017-10-14T07:42:00.791Z,969.04
2017-10-14T07:43:00.809Z,969.04
2017-10-14T07:44:00.834Z,969.02
2017-10-14T07:45:00.856Z,969.04
2017-10-14T07:46:00.874Z,969.04
2017-10-14T07:47:00.899Z,969.05
2017-10-14T07:48:00.919Z,969.05
2017-10-14T07:49:00.940Z,969.03
2017-10-14T07:50:00.961Z,969.09
2017-10-14T07:51:00.983Z,969.11
2017-10-14T07:52:01.006Z,969.09
2017-10-14T07:53:01.079Z,969.07
2017-10-14T07:54:01.049Z,969.13
2017-10-14T07:55:01.071Z,969.15
2017-10-14T07:56:01.092Z,969.11
2017-10-14T07:57:01.113Z,969.09
2017-10-14T07:58:01.136Z,969.14
2017-10-14T07:59:01.159Z,969.13
2017-10-14T08:00:01.183Z,969.15
2017-10-14T08:01:01.204Z,969.12
2017-10-14T08:02:01.225Z,969.14
2017-10-14T08:03:01.250Z,969.13
2017-10-14T08:04:01.278Z,969.12
2017-10-14T08:05:01.294Z,969.14
2017-10-14T08:06:01.319Z,969.1
2017-10-14T08:07:01.338Z,969.12
2017-10-14T08:08:01.409Z,969.09
2017-10-14T08:09:01.383Z,969.09
2017-10-14T08:10:01.406Z,969.06
2017-10-14T08:11:01.428Z,969.06
2017-10-14T08:12:01.450Z,969
2017-10-14T08:13:01.470Z,968.98
2017-10-14T08:14:01.496Z,969
2017-10-14T08:15:01.522Z,968.98
2017-10-14T08:16:01.539Z,969.01
2017-10-14T08:17:01.562Z,968.99
2017-10-14T08:18:01.609Z,968.98
2017-10-14T08:19:01.606Z,968.99
2017-10-14T08:20:01.635Z,968.98
2017-10-14T08:21:01.654Z,968.96
2017-10-14T08:22:01.679Z,969.02
2017-10-14T08:23:01.751Z,968.95
2017-10-14T08:24:01.721Z,968.99
2017-10-14T08:25:01.743Z,968.97
2017-10-14T08:26:01.768Z,968.96
2017-10-14T08:27:01.802Z,968.93
2017-10-14T08:28:01.812Z,968.92
2017-10-14T08:29:01.833Z,968.92
2017-10-14T08:30:01.860Z,968.95
2017-10-14T08:31:01.882Z,968.93
2017-10-14T08:32:01.913Z,968.91
2017-10-14T08:33:01.928Z,968.9
2017-10-14T08:34:01.952Z,968.92
2017-10-14T08:35:01.974Z,968.9
2017-10-14T08:36:02.002Z,968.93
2017-10-14T08:37:02.022Z,968.92
2017-10-14T08:38:02.043Z,968.94
2017-10-14T08:39:02.065Z,968.93
2017-10-14T08:40:02.091Z,968.94
2017-10-14T08:41:02.163Z,968.93
2017-10-14T08:42:02.139Z,968.98
2017-10-14T08:43:02.168Z,968.97
2017-10-14T08:44:02.193Z,968.97
2017-10-14T08:45:02.237Z,968.98
2017-10-14T08:46:02.232Z,968.96
2017-10-14T08:47:02.255Z,968.99
2017-10-14T08:48:02.280Z,968.96
2017-10-14T08:49:02.324Z,968.97
2017-10-14T08:50:02.327Z,968.96
2017-10-14T08:51:02.348Z,969.01
2017-10-14T08:52:02.371Z,968.98
2017-10-14T08:53:02.394Z,968.96
2017-10-14T08:54:02.425Z,968.96
2017-10-14T08:55:02.442Z,968.97
2017-10-14T08:56:02.517Z,968.95
2017-10-14T08:57:02.491Z,968.97
2017-10-14T08:58:02.513Z,968.93
2017-10-14T08:59:02.540Z,968.99
2017-10-14T09:00:02.563Z,968.94
2017-10-14T09:01:02.585Z,969.01
2017-10-14T09:02:02.611Z,968.99
2017-10-14T09:03:02.632Z,968.96
2017-10-14T09:04:02.655Z,968.93
2017-10-14T09:05:02.689Z,968.96
2017-10-14T09:06:02.704Z,968.99
2017-10-14T09:07:02.726Z,968.91
2017-10-14T09:08:02.752Z,968.91
2017-10-14T09:09:02.774Z,968.88
2017-10-14T09:10:02.800Z,968.93
2017-10-14T09:11:02.823Z,968.88
2017-10-14T09:12:02.847Z,968.92
2017-10-14T09:13:02.874Z,968.92
2017-10-14T09:14:02.896Z,968.92
2017-10-14T09:15:02.918Z,968.91
2017-10-14T09:16:02.944Z,968.9
2017-10-14T09:17:02.967Z,968.91
2017-10-14T09:18:02.991Z,968.91
2017-10-14T09:19:03.014Z,968.93
2017-10-14T09:20:03.044Z,968.96
2017-10-14T09:21:03.065Z,968.94
2017-10-14T09:22:03.087Z,968.96
2017-10-14T09:23:03.110Z,968.96
2017-10-14T09:24:03.135Z,968.94
2017-10-14T09:25:03.158Z,968.92
2017-10-14T09:26:03.182Z,968.85
2017-10-14T09:27:03.209Z,968.86
2017-10-14T09:28:03.234Z,968.89
2017-10-14T09:29:03.309Z,968.87
2017-10-14T09:30:03.284Z,968.85
2017-10-14T09:31:03.305Z,968.86
2017-10-14T09:32:03.330Z,968.87
2017-10-14T09:33:03.359Z,968.87
2017-10-14T09:34:03.379Z,968.87
2017-10-14T09:35:03.427Z,968.86
2017-10-14T09:36:03.427Z,968.88
2017-10-14T09:37:03.453Z,968.91
2017-10-14T09:38:03.480Z,968.9
2017-10-14T09:39:03.503Z,968.92
2017-10-14T09:40:03.534Z,968.92
2017-10-14T09:41:03.554Z,968.91
2017-10-14T09:42:03.577Z,968.86
2017-10-14T09:43:03.601Z,968.89
2017-10-14T09:44:03.626Z,968.85
2017-10-14T09:45:03.702Z,968.86
2017-10-14T09:46:03.682Z,968.87
2017-10-14T09:47:03.702Z,968.9
2017-10-14T09:48:03.727Z,968.9
2017-10-14T09:49:03.765Z,968.92
2017-10-14T09:50:03.776Z,968.9
2017-10-14T09:51:03.876Z,968.87
2017-10-14T09:52:03.826Z,968.87
2017-10-14T09:53:03.852Z,968.86
2017-10-14T09:54:03.882Z,968.84
2017-10-14T09:55:03.902Z,968.85
2017-10-14T09:56:03.937Z,968.84
2017-10-14T09:57:03.952Z,968.78
2017-10-14T09:58:03.979Z,968.79
2017-10-14T09:59:04.003Z,968.81
2017-10-14T10:00:04.031Z,968.85
2017-10-14T10:01:04.147Z,968.89
2017-10-14T10:02:04.080Z,968.89
2017-10-14T10:03:04.104Z,968.95
2017-10-14T10:04:04.187Z,968.98
2017-10-14T10:05:04.155Z,968.97
2017-10-14T10:06:04.182Z,968.96
2017-10-14T10:07:04.212Z,968.95
2017-10-14T10:08:04.235Z,968.97
2017-10-14T10:09:04.262Z,968.96
2017-10-14T10:10:04.292Z,968.93
2017-10-14T10:11:04.410Z,969
2017-10-14T10:12:04.343Z,969
2017-10-14T10:13:04.373Z,968.98
2017-10-14T10:14:04.405Z,969.03
2017-10-14T10:15:04.530Z,969.02
2017-10-14T10:16:04.457Z,969.02
2017-10-14T10:17:04.487Z,969.04
2017-10-14T10:18:04.566Z,969.03
2017-10-14T10:19:04.546Z,969.03
2017-10-14T10:20:04.575Z,969.07
2017-10-14T10:21:04.607Z,969.09
2017-10-14T10:22:04.704Z,969.09
2017-10-14T10:23:04.668Z,969.11
2017-10-14T10:24:04.697Z,969.04
2017-10-14T10:25:04.734Z,969.08
2017-10-14T10:26:04.807Z,969.1
2017-10-14T10:27:04.792Z,969.13
2017-10-14T10:28:04.824Z,969.11
2017-10-14T10:29:04.854Z,969.11
2017-10-14T10:30:04.887Z,969.13
2017-10-14T10:31:04.922Z,969.12
2017-10-14T10:32:05.070Z,969.15
2017-10-14T10:33:04.989Z,969.13
2017-10-14T10:34:05.017Z,969.14
2017-10-14T10:35:05.049Z,969.1
2017-10-14T10:36:05.082Z,969.08
2017-10-14T10:37:05.165Z,969.1
2017-10-14T10:38:05.148Z,969.1
2017-10-14T10:39:05.181Z,969.08
2017-10-14T10:40:05.224Z,969.09
2017-10-14T10:41:05.249Z,969.09
2017-10-14T10:42:05.283Z,969.05
2017-10-14T10:43:05.315Z,969.03
2017-10-14T10:44:05.349Z,969.01
2017-10-14T10:45:05.382Z,969.04
2017-10-14T10:46:05.421Z,969.02
2017-10-14T10:47:05.452Z,969.07
2017-10-14T10:48:05.486Z,969.07
2017-10-14T10:49:05.522Z,969.04
2017-10-14T10:50:05.555Z,969
2017-10-14T10:51:05.588Z,968.98
2017-10-14T10:52:05.674Z,969.08
2017-10-14T10:53:05.665Z,969.09
2017-10-14T10:54:05.694Z,969.04
2017-10-14T10:55:05.735Z,969.06
2017-10-14T10:56:05.768Z,969.1
2017-10-14T10:57:05.812Z,969.03
2017-10-14T10:58:05.834Z,969.01
2017-10-14T10:59:05.875Z,969.07
2017-10-14T11:00:05.903Z,969.09
2017-10-14T11:01:05.940Z,969.02
2017-10-14T11:02:05.983Z,969
2017-10-14T11:03:06.010Z,969.02
2017-10-14T11:04:06.044Z,968.99
2017-10-14T11:05:06.081Z,968.96
2017-10-14T11:06:06.120Z,968.97
2017-10-14T11:07:06.200Z,968.99
2017-10-14T11:08:06.189Z,968.97
2017-10-14T11:09:06.223Z,968.95
2017-10-14T11:10:06.332Z,968.96
2017-10-14T11:11:06.295Z,968.95
2017-10-14T11:12:06.337Z,968.98
2017-10-14T11:13:06.371Z,968.95
2017-10-14T11:14:06.405Z,968.98
2017-10-14T11:15:06.442Z,968.93
2017-10-14T11:16:06.479Z,968.9
2017-10-14T11:17:06.524Z,968.93
2017-10-14T11:18:06.556Z,968.9
2017-10-14T11:19:06.593Z,968.94
2017-10-14T11:20:06.626Z,968.91
2017-10-14T11:21:06.664Z,968.92
2017-10-14T11:22:06.751Z,968.89
2017-10-14T11:23:06.740Z,968.89
2017-10-14T11:24:06.776Z,968.89
2017-10-14T11:25:06.810Z,968.86
2017-10-14T11:26:06.848Z,968.88
2017-10-14T11:27:06.892Z,968.88
2017-10-14T11:28:06.928Z,968.87
2017-10-14T11:29:06.966Z,968.86
2017-10-14T11:30:07.009Z,968.88
2017-10-14T11:31:07.035Z,968.89
2017-10-14T11:32:07.072Z,968.9
2017-10-14T11:33:07.110Z,968.87
2017-10-14T11:34:07.152Z,968.85
2017-10-14T11:35:07.196Z,968.86
2017-10-14T11:36:07.222Z,968.85
2017-10-14T11:37:07.310Z,968.82
2017-10-14T11:38:07.299Z,968.83
2017-10-14T11:39:07.336Z,968.84
2017-10-14T11:40:07.394Z,968.82
2017-10-14T11:41:07.411Z,968.84
2017-10-14T11:42:07.451Z,968.89
2017-10-14T11:43:07.489Z,968.9
2017-10-14T11:44:07.528Z,968.9
2017-10-14T11:45:07.580Z,968.91
2017-10-14T11:46:07.604Z,968.87
2017-10-14T11:47:07.639Z,968.87
2017-10-14T11:48:07.682Z,968.9
2017-10-14T11:49:07.734Z,968.89
2017-10-14T11:50:07.754Z,968.91
2017-10-14T11:51:07.793Z,968.89
2017-10-14T11:52:07.828Z,968.87
2017-10-14T11:53:07.922Z,968.92
2017-10-14T11:54:07.909Z,968.89
2017-10-14T11:55:07.949Z,968.89
2017-10-14T11:56:07.984Z,968.92
2017-10-14T11:57:08.021Z,968.86
2017-10-14T11:58:08.060Z,968.92
2017-10-14T11:59:08.105Z,968.94
2017-10-14T12:00:08.137Z,968.97
2017-10-14T12:01:08.183Z,968.96
2017-10-14T12:02:08.215Z,969.01
2017-10-14T12:03:08.252Z,968.99
2017-10-14T12:04:08.293Z,968.97
2017-10-14T12:05:08.335Z,969
2017-10-14T12:06:08.370Z,968.99
2017-10-14T12:07:08.410Z,969.02
2017-10-14T12:08:08.459Z,968.95
2017-10-14T12:09:08.487Z,968.99
2017-10-14T12:10:08.629Z,969
2017-10-14T12:11:08.565Z,969.03
2017-10-14T12:12:08.606Z,969.01
2017-10-14T12:13:08.642Z,969.01
2017-10-14T12:14:08.683Z,969.02
2017-10-14T12:15:08.724Z,969.02
2017-10-14T12:16:08.763Z,969.07
2017-10-14T12:17:08.804Z,969.02
2017-10-14T12:18:08.842Z,969.02
2017-10-14T12:19:08.884Z,969
2017-10-14T12:20:08.930Z,969.03
2017-10-14T12:21:08.964Z,968.98
2017-10-14T12:22:09.003Z,969
2017-10-14T12:23:09.043Z,968.99
2017-10-14T12:24:09.087Z,969.02
2017-10-14T12:25:09.125Z,969.01
2017-10-14T12:26:09.166Z,969.01
2017-10-14T12:27:09.209Z,969.02
2017-10-14T12:28:09.295Z,969
2017-10-14T12:29:09.285Z,969.02
2017-10-14T12:30:09.325Z,969.03
2017-10-14T12:31:09.380Z,969.02
2017-10-14T12:32:09.404Z,969
2017-10-14T12:33:09.446Z,969.02